Bettles Airport Bettles US
ICAO: PABT
IATA:
Category: Medium
Scheduled Services:

Elevation: 647 ft
TransAlt. 18000 ft.

Airport Communications:
ASOS:135.45
ANCHORAGE CNTR:124.6
CTAF:122.9
FAIRBANKS RDO:122.2
TWEB:116

PABT Zoom In..

Runways:

(A) RW 01 length 5190 ft width 150 ft
LOC 108.70 / hdg 12

(B) RW 19 length 5190 ft width 150 ft
LOC 108.70 / hdg 192

Location; PABT
Day. 25 / Time. 12.00 Zulu
* Altimeter: 29.54
* Temperature: 01° c. 33.8°f.
* Wind from: 000° Speed 00 kn.
Dewpoint: 01° c.
Visibility: 7 Statute Miles.
Clouds: Scattered 900 ft.
Clouds: Overcast 1400 ft.

PABT 251200Z 00000KT 7SM SCT009 OVC014 01/01 A2954 RMK AO2 T00110006 $


Wind - Calm.

  YouTube Music Video
 
jpsmedia.com for Web Design  worldairports.se 2018   terms of use